sensor_id;sensor_type;location;lat;lon;timestamp;P1;durP1;ratioP1;P2;durP2;ratioP2
29848;SDS011;16728;50.832;5.590;2023-02-28T00:01:39;9.35;;;6.07;;
29848;SDS011;16728;50.832;5.590;2023-02-28T00:04:41;11.20;;;5.55;;
29848;SDS011;16728;50.832;5.590;2023-02-28T00:07:43;8.52;;;5.88;;
29848;SDS011;16728;50.832;5.590;2023-02-28T00:10:45;8.18;;;5.47;;
29848;SDS011;16728;50.832;5.590;2023-02-28T00:13:47;10.07;;;6.55;;
29848;SDS011;16728;50.832;5.590;2023-02-28T00:16:49;11.03;;;6.20;;
29848;SDS011;16728;50.832;5.590;2023-02-28T00:19:51;15.68;;;9.70;;
29848;SDS011;16728;50.832;5.590;2023-02-28T00:22:53;15.73;;;10.55;;
29848;SDS011;16728;50.832;5.590;2023-02-28T00:25:55;11.90;;;7.97;;
29848;SDS011;16728;50.832;5.590;2023-02-28T00:28:57;12.50;;;7.53;;
29848;SDS011;16728;50.832;5.590;2023-02-28T00:31:59;11.38;;;6.53;;
29848;SDS011;16728;50.832;5.590;2023-02-28T00:35:02;7.77;;;5.27;;
29848;SDS011;16728;50.832;5.590;2023-02-28T00:38:04;9.18;;;6.38;;
29848;SDS011;16728;50.832;5.590;2023-02-28T00:41:07;9.10;;;6.22;;
29848;SDS011;16728;50.832;5.590;2023-02-28T00:44:09;10.00;;;6.53;;
29848;SDS011;16728;50.832;5.590;2023-02-28T00:47:11;9.10;;;6.50;;
29848;SDS011;16728;50.832;5.590;2023-02-28T00:50:13;10.32;;;7.35;;
29848;SDS011;16728;50.832;5.590;2023-02-28T00:53:14;12.02;;;6.85;;
29848;SDS011;16728;50.832;5.590;2023-02-28T00:56:16;11.60;;;5.88;;
29848;SDS011;16728;50.832;5.590;2023-02-28T00:59:18;10.25;;;6.28;;
29848;SDS011;16728;50.832;5.590;2023-02-28T01:02:21;9.80;;;6.78;;
29848;SDS011;16728;50.832;5.590;2023-02-28T01:05:23;8.48;;;6.20;;
29848;SDS011;16728;50.832;5.590;2023-02-28T01:08:25;9.70;;;6.72;;
29848;SDS011;16728;50.832;5.590;2023-02-28T01:11:27;8.07;;;6.38;;
29848;SDS011;16728;50.832;5.590;2023-02-28T01:14:30;7.05;;;4.65;;
29848;SDS011;16728;50.832;5.590;2023-02-28T01:17:32;8.25;;;6.57;;
29848;SDS011;16728;50.832;5.590;2023-02-28T01:20:35;9.05;;;6.95;;
29848;SDS011;16728;50.832;5.590;2023-02-28T01:23:38;14.60;;;7.28;;
29848;SDS011;16728;50.832;5.590;2023-02-28T01:26:41;9.57;;;6.38;;
29848;SDS011;16728;50.832;5.590;2023-02-28T01:29:43;10.02;;;6.03;;
29848;SDS011;16728;50.832;5.590;2023-02-28T01:32:45;11.38;;;6.05;;
29848;SDS011;16728;50.832;5.590;2023-02-28T01:35:46;8.55;;;5.80;;
29848;SDS011;16728;50.832;5.590;2023-02-28T01:38:49;8.70;;;6.35;;
29848;SDS011;16728;50.832;5.590;2023-02-28T01:41:51;10.05;;;6.32;;
29848;SDS011;16728;50.832;5.590;2023-02-28T01:48:31;9.10;;;6.43;;
29848;SDS011;16728;50.832;5.590;2023-02-28T01:51:37;8.50;;;6.65;;
29848;SDS011;16728;50.832;5.590;2023-02-28T02:01:07;9.93;;;6.60;;
29848;SDS011;16728;50.832;5.590;2023-02-28T02:04:09;9.65;;;6.47;;
29848;SDS011;16728;50.832;5.590;2023-02-28T02:07:11;8.43;;;6.15;;
29848;SDS011;16728;50.832;5.590;2023-02-28T02:10:18;12.52;;;7.10;;
29848;SDS011;16728;50.832;5.590;2023-02-28T02:23:07;10.05;;;7.07;;
29848;SDS011;16728;50.832;5.590;2023-02-28T02:40:20;10.43;;;6.80;;
29848;SDS011;16728;50.832;5.590;2023-02-28T02:46:48;8.53;;;6.13;;
29848;SDS011;16728;50.832;5.590;2023-02-28T02:49:55;8.23;;;6.47;;
29848;SDS011;16728;50.832;5.590;2023-02-28T02:53:00;8.85;;;6.85;;
29848;SDS011;16728;50.832;5.590;2023-02-28T02:56:04;9.52;;;6.10;;
29848;SDS011;16728;50.832;5.590;2023-02-28T02:59:07;7.82;;;6.30;;
29848;SDS011;16728;50.832;5.590;2023-02-28T03:02:12;11.63;;;5.93;;
29848;SDS011;16728;50.832;5.590;2023-02-28T03:05:21;12.40;;;6.00;;
29848;SDS011;16728;50.832;5.590;2023-02-28T03:08:27;8.82;;;6.30;;
29848;SDS011;16728;50.832;5.590;2023-02-28T03:11:31;10.50;;;6.38;;
29848;SDS011;16728;50.832;5.590;2023-02-28T03:14:46;9.65;;;6.40;;
29848;SDS011;16728;50.832;5.590;2023-02-28T03:21:21;10.30;;;5.93;;
29848;SDS011;16728;50.832;5.590;2023-02-28T03:24:33;8.35;;;6.20;;
29848;SDS011;16728;50.832;5.590;2023-02-28T03:28:02;13.05;;;6.90;;
29848;SDS011;16728;50.832;5.590;2023-02-28T03:31:16;10.40;;;6.70;;
29848;SDS011;16728;50.832;5.590;2023-02-28T03:37:32;9.60;;;5.82;;
29848;SDS011;16728;50.832;5.590;2023-02-28T03:40:39;9.38;;;6.13;;
29848;SDS011;16728;50.832;5.590;2023-02-28T03:43:48;10.05;;;6.90;;
29848;SDS011;16728;50.832;5.590;2023-02-28T03:47:07;11.13;;;7.45;;
29848;SDS011;16728;50.832;5.590;2023-02-28T03:53:22;10.70;;;7.15;;
29848;SDS011;16728;50.832;5.590;2023-02-28T03:56:41;8.63;;;6.95;;
29848;SDS011;16728;50.832;5.590;2023-02-28T04:00:05;11.18;;;6.90;;
29848;SDS011;16728;50.832;5.590;2023-02-28T04:03:09;11.60;;;6.78;;
29848;SDS011;16728;50.832;5.590;2023-02-28T04:06:15;11.18;;;6.85;;
29848;SDS011;16728;50.832;5.590;2023-02-28T04:09:20;8.32;;;6.88;;
29848;SDS011;16728;50.832;5.590;2023-02-28T04:12:21;10.38;;;7.60;;
29848;SDS011;16728;50.832;5.590;2023-02-28T04:15:24;8.83;;;7.57;;
29848;SDS011;16728;50.832;5.590;2023-02-28T04:18:28;10.13;;;7.70;;
29848;SDS011;16728;50.832;5.590;2023-02-28T04:21:31;12.25;;;7.97;;
29848;SDS011;16728;50.832;5.590;2023-02-28T04:24:34;12.15;;;7.82;;
29848;SDS011;16728;50.832;5.590;2023-02-28T04:27:36;8.60;;;7.25;;
29848;SDS011;16728;50.832;5.590;2023-02-28T04:30:38;10.02;;;7.85;;
29848;SDS011;16728;50.832;5.590;2023-02-28T04:33:40;13.27;;;8.25;;
29848;SDS011;16728;50.832;5.590;2023-02-28T04:36:42;12.63;;;7.50;;
29848;SDS011;16728;50.832;5.590;2023-02-28T04:39:44;13.32;;;7.32;;
29848;SDS011;16728;50.832;5.590;2023-02-28T04:42:45;15.48;;;8.07;;
29848;SDS011;16728;50.832;5.590;2023-02-28T04:45:48;12.95;;;8.05;;
29848;SDS011;16728;50.832;5.590;2023-02-28T04:48:49;11.90;;;8.15;;
29848;SDS011;16728;50.832;5.590;2023-02-28T04:51:51;11.85;;;7.47;;
29848;SDS011;16728;50.832;5.590;2023-02-28T04:54:54;11.82;;;8.15;;
29848;SDS011;16728;50.832;5.590;2023-02-28T04:57:56;12.23;;;7.93;;
29848;SDS011;16728;50.832;5.590;2023-02-28T05:01:02;9.57;;;7.60;;
29848;SDS011;16728;50.832;5.590;2023-02-28T05:04:16;10.57;;;7.80;;
29848;SDS011;16728;50.832;5.590;2023-02-28T05:07:18;9.43;;;7.30;;
29848;SDS011;16728;50.832;5.590;2023-02-28T05:10:21;10.48;;;7.35;;
29848;SDS011;16728;50.832;5.590;2023-02-28T05:13:23;14.13;;;8.07;;
29848;SDS011;16728;50.832;5.590;2023-02-28T05:16:25;17.38;;;7.80;;
29848;SDS011;16728;50.832;5.590;2023-02-28T05:19:27;9.63;;;7.75;;
29848;SDS011;16728;50.832;5.590;2023-02-28T05:22:29;14.50;;;7.95;;
29848;SDS011;16728;50.832;5.590;2023-02-28T05:25:31;9.82;;;7.78;;
29848;SDS011;16728;50.832;5.590;2023-02-28T05:28:34;10.43;;;8.48;;
29848;SDS011;16728;50.832;5.590;2023-02-28T05:31:36;11.50;;;7.70;;
29848;SDS011;16728;50.832;5.590;2023-02-28T05:34:39;9.63;;;7.80;;
29848;SDS011;16728;50.832;5.590;2023-02-28T05:37:41;10.82;;;7.75;;
29848;SDS011;16728;50.832;5.590;2023-02-28T05:40:43;12.63;;;8.60;;
29848;SDS011;16728;50.832;5.590;2023-02-28T05:43:45;9.73;;;8.40;;
29848;SDS011;16728;50.832;5.590;2023-02-28T05:46:48;13.32;;;8.73;;
29848;SDS011;16728;50.832;5.590;2023-02-28T05:49:49;12.55;;;7.63;;
29848;SDS011;16728;50.832;5.590;2023-02-28T05:52:51;14.88;;;8.40;;
29848;SDS011;16728;50.832;5.590;2023-02-28T05:55:54;11.75;;;8.52;;
29848;SDS011;16728;50.832;5.590;2023-02-28T05:58:56;12.70;;;7.55;;
29848;SDS011;16728;50.832;5.590;2023-02-28T06:01:58;11.90;;;7.82;;
29848;SDS011;16728;50.832;5.590;2023-02-28T06:05:00;13.52;;;8.23;;
29848;SDS011;16728;50.832;5.590;2023-02-28T06:08:02;14.55;;;8.43;;
29848;SDS011;16728;50.832;5.590;2023-02-28T06:11:04;12.65;;;8.10;;
29848;SDS011;16728;50.832;5.590;2023-02-28T06:14:06;10.47;;;8.37;;
29848;SDS011;16728;50.832;5.590;2023-02-28T06:17:09;12.38;;;8.13;;
29848;SDS011;16728;50.832;5.590;2023-02-28T06:20:11;21.13;;;9.05;;
29848;SDS011;16728;50.832;5.590;2023-02-28T06:23:16;13.82;;;8.30;;
29848;SDS011;16728;50.832;5.590;2023-02-28T06:26:18;11.88;;;7.72;;
29848;SDS011;16728;50.832;5.590;2023-02-28T06:29:20;10.52;;;7.90;;
29848;SDS011;16728;50.832;5.590;2023-02-28T06:32:22;10.60;;;7.68;;
29848;SDS011;16728;50.832;5.590;2023-02-28T06:35:24;15.68;;;7.85;;
29848;SDS011;16728;50.832;5.590;2023-02-28T06:38:26;12.35;;;7.88;;
29848;SDS011;16728;50.832;5.590;2023-02-28T06:41:28;12.68;;;8.10;;
29848;SDS011;16728;50.832;5.590;2023-02-28T06:44:34;12.15;;;7.80;;
29848;SDS011;16728;50.832;5.590;2023-02-28T06:47:40;8.35;;;5.50;;
29848;SDS011;16728;50.832;5.590;2023-02-28T06:50:42;12.80;;;8.18;;
29848;SDS011;16728;50.832;5.590;2023-02-28T06:53:44;12.52;;;8.20;;
29848;SDS011;16728;50.832;5.590;2023-02-28T06:56:46;12.68;;;7.53;;
29848;SDS011;16728;50.832;5.590;2023-02-28T06:59:49;11.60;;;7.32;;
29848;SDS011;16728;50.832;5.590;2023-02-28T07:02:51;9.23;;;5.90;;
29848;SDS011;16728;50.832;5.590;2023-02-28T07:05:55;13.27;;;7.57;;
29848;SDS011;16728;50.832;5.590;2023-02-28T07:08:57;7.43;;;6.37;;
29848;SDS011;16728;50.832;5.590;2023-02-28T07:12:00;14.13;;;7.97;;
29848;SDS011;16728;50.832;5.590;2023-02-28T07:15:02;13.55;;;7.70;;
29848;SDS011;16728;50.832;5.590;2023-02-28T07:18:05;12.90;;;8.07;;
29848;SDS011;16728;50.832;5.590;2023-02-28T07:21:08;11.68;;;7.90;;
29848;SDS011;16728;50.832;5.590;2023-02-28T07:24:11;11.98;;;8.30;;
29848;SDS011;16728;50.832;5.590;2023-02-28T07:27:13;13.18;;;8.18;;
29848;SDS011;16728;50.832;5.590;2023-02-28T07:30:24;14.85;;;8.07;;
29848;SDS011;16728;50.832;5.590;2023-02-28T07:33:26;14.30;;;7.82;;
29848;SDS011;16728;50.832;5.590;2023-02-28T07:36:28;9.90;;;7.10;;
29848;SDS011;16728;50.832;5.590;2023-02-28T07:39:30;12.70;;;7.68;;
29848;SDS011;16728;50.832;5.590;2023-02-28T07:42:32;11.52;;;7.20;;
29848;SDS011;16728;50.832;5.590;2023-02-28T07:45:34;15.02;;;7.32;;
29848;SDS011;16728;50.832;5.590;2023-02-28T07:48:36;10.75;;;6.60;;
29848;SDS011;16728;50.832;5.590;2023-02-28T07:51:38;12.15;;;7.50;;
29848;SDS011;16728;50.832;5.590;2023-02-28T07:54:40;10.32;;;7.38;;
29848;SDS011;16728;50.832;5.590;2023-02-28T07:57:41;10.43;;;7.43;;
29848;SDS011;16728;50.832;5.590;2023-02-28T08:00:44;12.13;;;6.80;;
29848;SDS011;16728;50.832;5.590;2023-02-28T08:03:46;11.30;;;6.60;;
29848;SDS011;16728;50.832;5.590;2023-02-28T08:06:48;12.50;;;6.93;;
29848;SDS011;16728;50.832;5.590;2023-02-28T08:09:53;10.60;;;5.93;;
29848;SDS011;16728;50.832;5.590;2023-02-28T08:12:54;12.52;;;7.55;;
29848;SDS011;16728;50.832;5.590;2023-02-28T08:15:56;8.50;;;6.07;;
29848;SDS011;16728;50.832;5.590;2023-02-28T08:18:58;8.00;;;6.40;;
29848;SDS011;16728;50.832;5.590;2023-02-28T08:22:00;10.82;;;6.38;;
29848;SDS011;16728;50.832;5.590;2023-02-28T08:25:02;11.20;;;6.68;;
29848;SDS011;16728;50.832;5.590;2023-02-28T08:28:04;10.02;;;6.55;;
29848;SDS011;16728;50.832;5.590;2023-02-28T08:31:07;11.27;;;6.65;;
29848;SDS011;16728;50.832;5.590;2023-02-28T08:34:12;9.43;;;5.85;;
29848;SDS011;16728;50.832;5.590;2023-02-28T08:37:15;6.68;;;5.07;;
29848;SDS011;16728;50.832;5.590;2023-02-28T08:40:17;6.78;;;6.03;;
29848;SDS011;16728;50.832;5.590;2023-02-28T08:43:19;8.75;;;6.13;;
29848;SDS011;16728;50.832;5.590;2023-02-28T08:46:22;8.40;;;5.15;;
29848;SDS011;16728;50.832;5.590;2023-02-28T08:49:24;7.18;;;4.97;;
29848;SDS011;16728;50.832;5.590;2023-02-28T08:52:27;9.98;;;4.82;;
29848;SDS011;16728;50.832;5.590;2023-02-28T08:55:28;6.25;;;5.03;;
29848;SDS011;16728;50.832;5.590;2023-02-28T08:58:30;9.95;;;5.20;;
29848;SDS011;16728;50.832;5.590;2023-02-28T09:01:33;10.65;;;7.72;;
29848;SDS011;16728;50.832;5.590;2023-02-28T09:04:35;14.65;;;11.88;;
29848;SDS011;16728;50.832;5.590;2023-02-28T09:07:37;46.20;;;33.53;;
29848;SDS011;16728;50.832;5.590;2023-02-28T09:10:39;14.52;;;12.90;;
29848;SDS011;16728;50.832;5.590;2023-02-28T09:13:41;10.95;;;6.68;;
29848;SDS011;16728;50.832;5.590;2023-02-28T09:16:43;7.80;;;5.93;;
29848;SDS011;16728;50.832;5.590;2023-02-28T09:19:47;9.20;;;6.97;;
29848;SDS011;16728;50.832;5.590;2023-02-28T09:22:50;5.60;;;4.18;;
29848;SDS011;16728;50.832;5.590;2023-02-28T09:25:53;5.63;;;4.93;;
29848;SDS011;16728;50.832;5.590;2023-02-28T09:28:56;7.00;;;5.10;;
29848;SDS011;16728;50.832;5.590;2023-02-28T09:32:00;7.10;;;5.05;;
29848;SDS011;16728;50.832;5.590;2023-02-28T09:35:02;6.95;;;4.60;;
29848;SDS011;16728;50.832;5.590;2023-02-28T09:38:05;6.22;;;4.55;;
29848;SDS011;16728;50.832;5.590;2023-02-28T09:41:13;7.10;;;3.88;;
29848;SDS011;16728;50.832;5.590;2023-02-28T09:44:54;9.80;;;3.67;;
29848;SDS011;16728;50.832;5.590;2023-02-28T09:47:49;4.40;;;3.80;;
29848;SDS011;16728;50.832;5.590;2023-02-28T09:50:55;3.97;;;3.30;;
29848;SDS011;16728;50.832;5.590;2023-02-28T09:54:03;6.57;;;4.30;;
29848;SDS011;16728;50.832;5.590;2023-02-28T10:03:32;4.00;;;3.10;;
29848;SDS011;16728;50.832;5.590;2023-02-28T10:06:44;5.47;;;3.47;;
29848;SDS011;16728;50.832;5.590;2023-02-28T10:09:51;5.70;;;3.40;;
29848;SDS011;16728;50.832;5.590;2023-02-28T10:12:58;4.93;;;3.97;;
29848;SDS011;16728;50.832;5.590;2023-02-28T10:16:13;6.10;;;4.80;;
29848;SDS011;16728;50.832;5.590;2023-02-28T10:22:31;39.08;;;29.00;;
29848;SDS011;16728;50.832;5.590;2023-02-28T10:25:39;13.13;;;10.13;;
29848;SDS011;16728;50.832;5.590;2023-02-28T10:28:44;97.50;;;63.75;;
29848;SDS011;16728;50.832;5.590;2023-02-28T10:31:46;19.73;;;14.77;;
29848;SDS011;16728;50.832;5.590;2023-02-28T10:38:17;16.88;;;10.30;;
29848;SDS011;16728;50.832;5.590;2023-02-28T10:41:30;12.15;;;8.02;;
29848;SDS011;16728;50.832;5.590;2023-02-28T10:44:37;16.90;;;13.68;;
29848;SDS011;16728;50.832;5.590;2023-02-28T10:50:56;7.00;;;5.45;;
29848;SDS011;16728;50.832;5.590;2023-02-28T10:54:00;12.30;;;8.10;;
29848;SDS011;16728;50.832;5.590;2023-02-28T10:57:15;11.50;;;7.88;;
29848;SDS011;16728;50.832;5.590;2023-02-28T11:00:22;44.80;;;29.92;;
29848;SDS011;16728;50.832;5.590;2023-02-28T11:03:34;15.60;;;10.07;;
29848;SDS011;16728;50.832;5.590;2023-02-28T11:06:36;20.85;;;13.70;;
29848;SDS011;16728;50.832;5.590;2023-02-28T11:09:39;9.07;;;7.10;;
29848;SDS011;16728;50.832;5.590;2023-02-28T11:12:42;64.60;;;38.58;;
29848;SDS011;16728;50.832;5.590;2023-02-28T11:15:54;136.20;;;61.28;;
29848;SDS011;16728;50.832;5.590;2023-02-28T11:18:58;107.05;;;48.67;;
29848;SDS011;16728;50.832;5.590;2023-02-28T11:22:02;19.20;;;8.73;;
29848;SDS011;16728;50.832;5.590;2023-02-28T11:28:31;305.88;;;140.55;;
29848;SDS011;16728;50.832;5.590;2023-02-28T11:31:35;62.25;;;30.45;;
29848;SDS011;16728;50.832;5.590;2023-02-28T11:34:38;112.00;;;53.60;;
29848;SDS011;16728;50.832;5.590;2023-02-28T11:37:41;121.72;;;53.45;;
29848;SDS011;16728;50.832;5.590;2023-02-28T11:47:17;35.72;;;17.80;;
29848;SDS011;16728;50.832;5.590;2023-02-28T12:00:39;71.60;;;38.47;;
29848;SDS011;16728;50.832;5.590;2023-02-28T12:17:37;22.67;;;14.65;;
29848;SDS011;16728;50.832;5.590;2023-02-28T12:27:57;7.90;;;5.45;;
29848;SDS011;16728;50.832;5.590;2023-02-28T12:31:01;10.20;;;7.22;;
29848;SDS011;16728;50.832;5.590;2023-02-28T12:34:11;5.80;;;3.53;;
29848;SDS011;16728;50.832;5.590;2023-02-28T12:37:17;5.97;;;3.95;;
29848;SDS011;16728;50.832;5.590;2023-02-28T12:40:33;4.03;;;3.60;;
29848;SDS011;16728;50.832;5.590;2023-02-28T12:43:43;3.73;;;3.20;;
29848;SDS011;16728;50.832;5.590;2023-02-28T12:46:49;3.33;;;2.90;;
29848;SDS011;16728;50.832;5.590;2023-02-28T12:56:30;5.47;;;3.60;;
29848;SDS011;16728;50.832;5.590;2023-02-28T12:59:53;5.05;;;3.08;;
29848;SDS011;16728;50.832;5.590;2023-02-28T13:03:17;6.03;;;4.13;;
29848;SDS011;16728;50.832;5.590;2023-02-28T13:10:01;6.10;;;3.67;;
29848;SDS011;16728;50.832;5.590;2023-02-28T13:13:13;5.88;;;3.13;;
29848;SDS011;16728;50.832;5.590;2023-02-28T13:16:20;8.75;;;3.35;;
29848;SDS011;16728;50.832;5.590;2023-02-28T13:19:22;4.40;;;3.92;;
29848;SDS011;16728;50.832;5.590;2023-02-28T13:25:51;4.32;;;3.30;;
29848;SDS011;16728;50.832;5.590;2023-02-28T13:28:59;8.00;;;4.13;;
29848;SDS011;16728;50.832;5.590;2023-02-28T13:38:15;115.95;;;52.00;;
29848;SDS011;16728;50.832;5.590;2023-02-28T13:44:30;54.65;;;28.17;;
29848;SDS011;16728;50.832;5.590;2023-02-28T13:48:20;16.70;;;10.18;;
29848;SDS011;16728;50.832;5.590;2023-02-28T13:58:07;36.05;;;22.70;;
29848;SDS011;16728;50.832;5.590;2023-02-28T14:01:31;125.43;;;65.95;;
29848;SDS011;16728;50.832;5.590;2023-02-28T14:05:00;29.40;;;20.10;;
29848;SDS011;16728;50.832;5.590;2023-02-28T14:08:22;30.13;;;16.05;;
29848;SDS011;16728;50.832;5.590;2023-02-28T14:11:28;49.22;;;30.20;;
29848;SDS011;16728;50.832;5.590;2023-02-28T14:17:38;36.88;;;19.65;;
29848;SDS011;16728;50.832;5.590;2023-02-28T14:20:42;92.45;;;46.83;;
29848;SDS011;16728;50.832;5.590;2023-02-28T14:23:50;64.32;;;37.00;;
29848;SDS011;16728;50.832;5.590;2023-02-28T14:30:45;14.48;;;7.82;;
29848;SDS011;16728;50.832;5.590;2023-02-28T14:37:36;14.02;;;9.23;;
29848;SDS011;16728;50.832;5.590;2023-02-28T14:40:40;6.95;;;5.15;;
29848;SDS011;16728;50.832;5.590;2023-02-28T14:43:55;6.22;;;4.72;;
29848;SDS011;16728;50.832;5.590;2023-02-28T14:47:00;27.42;;;20.67;;
29848;SDS011;16728;50.832;5.590;2023-02-28T14:50:23;9.35;;;6.45;;
29848;SDS011;16728;50.832;5.590;2023-02-28T14:53:35;28.33;;;19.85;;
29848;SDS011;16728;50.832;5.590;2023-02-28T14:56:38;12.32;;;8.77;;
29848;SDS011;16728;50.832;5.590;2023-02-28T14:59:41;23.73;;;15.10;;
29848;SDS011;16728;50.832;5.590;2023-02-28T15:02:43;12.25;;;7.68;;
29848;SDS011;16728;50.832;5.590;2023-02-28T15:05:55;8.40;;;5.75;;
29848;SDS011;16728;50.832;5.590;2023-02-28T15:09:09;12.35;;;9.75;;
29848;SDS011;16728;50.832;5.590;2023-02-28T15:12:20;14.85;;;12.45;;
29848;SDS011;16728;50.832;5.590;2023-02-28T15:15:24;19.13;;;14.77;;
29848;SDS011;16728;50.832;5.590;2023-02-28T15:19:02;15.65;;;11.02;;
29848;SDS011;16728;50.832;5.590;2023-02-28T15:22:19;42.58;;;30.90;;
29848;SDS011;16728;50.832;5.590;2023-02-28T15:25:30;16.65;;;11.88;;
29848;SDS011;16728;50.832;5.590;2023-02-28T15:28:32;20.80;;;15.27;;
29848;SDS011;16728;50.832;5.590;2023-02-28T15:31:37;11.68;;;10.00;;
29848;SDS011;16728;50.832;5.590;2023-02-28T15:34:58;8.70;;;7.03;;
29848;SDS011;16728;50.832;5.590;2023-02-28T15:41:28;28.23;;;18.92;;
29848;SDS011;16728;50.832;5.590;2023-02-28T15:44:33;41.72;;;23.52;;
29848;SDS011;16728;50.832;5.590;2023-02-28T15:47:38;8.77;;;6.40;;
29848;SDS011;16728;50.832;5.590;2023-02-28T15:50:40;11.73;;;7.60;;
29848;SDS011;16728;50.832;5.590;2023-02-28T15:53:52;52.88;;;35.60;;
29848;SDS011;16728;50.832;5.590;2023-02-28T15:57:06;35.22;;;23.05;;
29848;SDS011;16728;50.832;5.590;2023-02-28T16:00:15;26.20;;;15.63;;
29848;SDS011;16728;50.832;5.590;2023-02-28T16:03:25;17.98;;;11.63;;
29848;SDS011;16728;50.832;5.590;2023-02-28T16:06:42;53.55;;;28.92;;
29848;SDS011;16728;50.832;5.590;2023-02-28T16:09:45;24.55;;;14.68;;
29848;SDS011;16728;50.832;5.590;2023-02-28T16:12:48;18.13;;;11.70;;
29848;SDS011;16728;50.832;5.590;2023-02-28T16:15:50;9.73;;;7.15;;
29848;SDS011;16728;50.832;5.590;2023-02-28T16:18:52;7.15;;;5.13;;
29848;SDS011;16728;50.832;5.590;2023-02-28T16:21:55;13.95;;;11.25;;
29848;SDS011;16728;50.832;5.590;2023-02-28T16:24:56;11.27;;;8.63;;
29848;SDS011;16728;50.832;5.590;2023-02-28T16:27:58;20.50;;;13.38;;
29848;SDS011;16728;50.832;5.590;2023-02-28T16:31:02;31.25;;;18.63;;
29848;SDS011;16728;50.832;5.590;2023-02-28T16:34:06;22.15;;;13.70;;
29848;SDS011;16728;50.832;5.590;2023-02-28T16:37:12;33.55;;;19.30;;
29848;SDS011;16728;50.832;5.590;2023-02-28T16:40:16;16.27;;;9.95;;
29848;SDS011;16728;50.832;5.590;2023-02-28T16:43:24;50.80;;;24.55;;
29848;SDS011;16728;50.832;5.590;2023-02-28T16:46:30;13.93;;;11.57;;
29848;SDS011;16728;50.832;5.590;2023-02-28T16:49:35;8.82;;;7.78;;
29848;SDS011;16728;50.832;5.590;2023-02-28T16:52:37;8.27;;;5.55;;
29848;SDS011;16728;50.832;5.590;2023-02-28T16:55:39;11.10;;;7.88;;
29848;SDS011;16728;50.832;5.590;2023-02-28T16:58:41;188.32;;;121.85;;
29848;SDS011;16728;50.832;5.590;2023-02-28T17:01:43;66.13;;;53.08;;
29848;SDS011;16728;50.832;5.590;2023-02-28T17:04:45;22.30;;;20.00;;
29848;SDS011;16728;50.832;5.590;2023-02-28T17:07:48;14.57;;;11.80;;
29848;SDS011;16728;50.832;5.590;2023-02-28T17:10:51;7.60;;;5.70;;
29848;SDS011;16728;50.832;5.590;2023-02-28T17:13:52;6.30;;;4.38;;
29848;SDS011;16728;50.832;5.590;2023-02-28T17:16:57;9.57;;;5.97;;
29848;SDS011;16728;50.832;5.590;2023-02-28T17:20:02;18.70;;;12.50;;
29848;SDS011;16728;50.832;5.590;2023-02-28T17:23:04;17.77;;;15.05;;
29848;SDS011;16728;50.832;5.590;2023-02-28T17:26:14;18.75;;;16.92;;
29848;SDS011;16728;50.832;5.590;2023-02-28T17:29:21;15.55;;;10.25;;
29848;SDS011;16728;50.832;5.590;2023-02-28T17:32:23;10.90;;;7.88;;
29848;SDS011;16728;50.832;5.590;2023-02-28T17:35:25;7.30;;;5.57;;
29848;SDS011;16728;50.832;5.590;2023-02-28T17:38:28;9.82;;;4.85;;
29848;SDS011;16728;50.832;5.590;2023-02-28T17:41:30;6.93;;;5.35;;
29848;SDS011;16728;50.832;5.590;2023-02-28T17:44:32;11.38;;;5.35;;
29848;SDS011;16728;50.832;5.590;2023-02-28T17:47:34;6.73;;;4.90;;
29848;SDS011;16728;50.832;5.590;2023-02-28T17:50:36;7.22;;;4.88;;
29848;SDS011;16728;50.832;5.590;2023-02-28T17:53:38;8.20;;;6.18;;
29848;SDS011;16728;50.832;5.590;2023-02-28T17:56:41;9.93;;;6.80;;
29848;SDS011;16728;50.832;5.590;2023-02-28T17:59:47;7.45;;;5.38;;
29848;SDS011;16728;50.832;5.590;2023-02-28T18:02:49;354.63;;;168.23;;
29848;SDS011;16728;50.832;5.590;2023-02-28T18:05:52;382.70;;;200.63;;
29848;SDS011;16728;50.832;5.590;2023-02-28T18:08:54;188.70;;;100.97;;
29848;SDS011;16728;50.832;5.590;2023-02-28T18:11:56;132.75;;;70.80;;
29848;SDS011;16728;50.832;5.590;2023-02-28T18:14:58;151.82;;;80.40;;
29848;SDS011;16728;50.832;5.590;2023-02-28T18:18:00;189.00;;;99.57;;
29848;SDS011;16728;50.832;5.590;2023-02-28T18:21:07;143.05;;;90.22;;
29848;SDS011;16728;50.832;5.590;2023-02-28T18:24:16;37.15;;;26.02;;
29848;SDS011;16728;50.832;5.590;2023-02-28T18:27:19;34.38;;;27.33;;
29848;SDS011;16728;50.832;5.590;2023-02-28T18:30:21;14.30;;;10.82;;
29848;SDS011;16728;50.832;5.590;2023-02-28T18:33:25;18.50;;;15.27;;
29848;SDS011;16728;50.832;5.590;2023-02-28T18:36:27;15.52;;;12.95;;
29848;SDS011;16728;50.832;5.590;2023-02-28T18:39:30;24.17;;;18.13;;
29848;SDS011;16728;50.832;5.590;2023-02-28T18:42:32;52.33;;;37.17;;
29848;SDS011;16728;50.832;5.590;2023-02-28T18:45:35;33.88;;;17.67;;
29848;SDS011;16728;50.832;5.590;2023-02-28T18:48:38;23.50;;;17.48;;
29848;SDS011;16728;50.832;5.590;2023-02-28T18:51:40;29.27;;;24.00;;
29848;SDS011;16728;50.832;5.590;2023-02-28T18:54:47;35.08;;;25.10;;
29848;SDS011;16728;50.832;5.590;2023-02-28T18:57:49;65.75;;;48.08;;
29848;SDS011;16728;50.832;5.590;2023-02-28T19:00:51;96.65;;;68.32;;
29848;SDS011;16728;50.832;5.590;2023-02-28T19:03:55;51.17;;;40.63;;
29848;SDS011;16728;50.832;5.590;2023-02-28T19:06:59;60.55;;;30.35;;
29848;SDS011;16728;50.832;5.590;2023-02-28T19:10:03;38.97;;;20.95;;
29848;SDS011;16728;50.832;5.590;2023-02-28T19:13:05;32.55;;;23.92;;
29848;SDS011;16728;50.832;5.590;2023-02-28T19:16:08;36.95;;;27.15;;
29848;SDS011;16728;50.832;5.590;2023-02-28T19:19:14;23.92;;;16.95;;
29848;SDS011;16728;50.832;5.590;2023-02-28T19:22:16;31.67;;;21.58;;
29848;SDS011;16728;50.832;5.590;2023-02-28T19:25:18;24.40;;;17.58;;
29848;SDS011;16728;50.832;5.590;2023-02-28T19:28:20;20.52;;;13.80;;
29848;SDS011;16728;50.832;5.590;2023-02-28T19:31:23;36.03;;;21.40;;
29848;SDS011;16728;50.832;5.590;2023-02-28T19:34:26;51.15;;;28.50;;
29848;SDS011;16728;50.832;5.590;2023-02-28T19:37:28;43.97;;;24.30;;
29848;SDS011;16728;50.832;5.590;2023-02-28T19:40:30;51.92;;;30.30;;
29848;SDS011;16728;50.832;5.590;2023-02-28T19:43:32;31.70;;;20.13;;
29848;SDS011;16728;50.832;5.590;2023-02-28T19:46:34;46.60;;;27.60;;
29848;SDS011;16728;50.832;5.590;2023-02-28T19:49:36;47.60;;;28.75;;
29848;SDS011;16728;50.832;5.590;2023-02-28T19:52:38;29.85;;;19.20;;
29848;SDS011;16728;50.832;5.590;2023-02-28T19:55:40;57.20;;;34.28;;
29848;SDS011;16728;50.832;5.590;2023-02-28T19:58:42;19.38;;;12.52;;
29848;SDS011;16728;50.832;5.590;2023-02-28T20:01:43;49.70;;;30.00;;
29848;SDS011;16728;50.832;5.590;2023-02-28T20:04:48;42.47;;;26.73;;
29848;SDS011;16728;50.832;5.590;2023-02-28T20:07:50;38.30;;;20.77;;
29848;SDS011;16728;50.832;5.590;2023-02-28T20:10:52;32.92;;;20.48;;
29848;SDS011;16728;50.832;5.590;2023-02-28T20:13:54;46.75;;;23.70;;
29848;SDS011;16728;50.832;5.590;2023-02-28T20:17:02;44.08;;;24.58;;
29848;SDS011;16728;50.832;5.590;2023-02-28T20:20:04;26.02;;;18.35;;
29848;SDS011;16728;50.832;5.590;2023-02-28T20:23:09;28.80;;;18.65;;
29848;SDS011;16728;50.832;5.590;2023-02-28T20:26:11;31.60;;;21.27;;
29848;SDS011;16728;50.832;5.590;2023-02-28T20:29:13;40.63;;;24.48;;
29848;SDS011;16728;50.832;5.590;2023-02-28T20:32:15;67.43;;;40.65;;
29848;SDS011;16728;50.832;5.590;2023-02-28T20:35:17;77.35;;;45.55;;
29848;SDS011;16728;50.832;5.590;2023-02-28T20:38:18;74.28;;;43.35;;
29848;SDS011;16728;50.832;5.590;2023-02-28T20:41:21;52.15;;;29.50;;
29848;SDS011;16728;50.832;5.590;2023-02-28T20:44:23;36.50;;;23.58;;